createdAt,value
2022-07-26T00:00:45.359Z,6.40
2022-07-26T00:03:35.023Z,6.55
2022-07-26T00:06:23.799Z,6.72
2022-07-26T00:09:12.686Z,6.45
2022-07-26T00:12:03.393Z,6.00
2022-07-26T00:14:53.275Z,5.72
2022-07-26T00:17:41.907Z,6.53
2022-07-26T00:20:31.109Z,7.03
2022-07-26T00:23:20.486Z,6.15
2022-07-26T00:26:09.546Z,6.18
2022-07-26T00:29:03.692Z,6.20
2022-07-26T00:31:52.373Z,6.57
2022-07-26T00:34:41.452Z,6.70
2022-07-26T00:37:30.106Z,6.35
2022-07-26T00:40:18.796Z,6.65
2022-07-26T00:43:07.608Z,6.03
2022-07-26T00:45:57.685Z,6.53
2022-07-26T00:48:47.126Z,6.97
2022-07-26T00:51:36.135Z,6.72
2022-07-26T00:54:26.360Z,6.25
2022-07-26T00:57:15.491Z,6.50
2022-07-26T01:00:05.572Z,6.75
2022-07-26T01:02:55.821Z,6.45
2022-07-26T01:05:46.209Z,6.93
2022-07-26T01:08:35.432Z,6.80
2022-07-26T01:11:24.228Z,7.07
2022-07-26T01:14:13.000Z,7.50
2022-07-26T01:17:01.599Z,6.72
2022-07-26T01:19:51.522Z,6.70
2022-07-26T01:22:42.290Z,7.03
2022-07-26T01:25:32.842Z,7.63
2022-07-26T01:28:36.303Z,6.80
2022-07-26T01:31:25.283Z,6.18
2022-07-26T01:34:14.038Z,6.88
2022-07-26T01:37:03.339Z,6.78
2022-07-26T01:39:54.544Z,7.13
2022-07-26T01:42:44.431Z,6.65
2022-07-26T01:45:33.383Z,6.90
2022-07-26T01:48:22.006Z,6.95
2022-07-26T01:51:10.927Z,6.45
2022-07-26T01:53:59.877Z,6.57
2022-07-26T01:56:50.095Z,6.90
2022-07-26T01:59:39.017Z,6.55
2022-07-26T02:02:27.961Z,6.45
2022-07-26T02:05:16.584Z,6.50
2022-07-26T02:08:05.948Z,6.45
2022-07-26T02:11:03.762Z,6.65
2022-07-26T02:13:54.107Z,6.55
2022-07-26T02:16:42.873Z,6.60
2022-07-26T02:19:33.438Z,6.63
2022-07-26T02:22:22.095Z,6.80
2022-07-26T02:25:11.259Z,7.10
2022-07-26T02:28:01.422Z,6.97
2022-07-26T02:30:52.501Z,6.43
2022-07-26T02:33:42.012Z,7.10
2022-07-26T02:36:30.906Z,7.30
2022-07-26T02:39:19.608Z,7.38
2022-07-26T02:42:08.922Z,6.68
2022-07-26T02:44:57.839Z,6.50
2022-07-26T02:47:49.386Z,7.00
2022-07-26T02:50:38.017Z,6.93
2022-07-26T02:53:26.772Z,6.35
2022-07-26T02:56:15.432Z,7.32
2022-07-26T02:59:04.101Z,6.60
2022-07-26T03:01:52.851Z,6.72
2022-07-26T03:04:43.502Z,6.75
2022-07-26T03:07:32.630Z,6.60
2022-07-26T03:10:21.478Z,7.10
2022-07-26T03:13:10.570Z,6.60
2022-07-26T03:15:59.162Z,6.40
2022-07-26T03:18:47.935Z,6.75
2022-07-26T03:21:38.037Z,7.38
2022-07-26T03:24:27.137Z,7.15
2022-07-26T03:27:15.748Z,7.00
2022-07-26T03:30:04.770Z,7.32
2022-07-26T03:32:53.676Z,6.88
2022-07-26T03:35:42.184Z,7.63
2022-07-26T03:38:36.671Z,8.00
2022-07-26T03:41:25.463Z,7.72
2022-07-26T03:44:14.061Z,7.38
2022-07-26T03:47:02.532Z,7.53
2022-07-26T03:49:51.162Z,7.57
2022-07-26T03:52:39.990Z,7.47
2022-07-26T03:55:48.123Z,6.72
2022-07-26T03:58:38.447Z,7.57
2022-07-26T04:01:27.462Z,7.75
2022-07-26T04:04:18.726Z,7.65
2022-07-26T04:07:14.082Z,7.10
2022-07-26T04:10:03.766Z,7.35
2022-07-26T04:12:54.096Z,7.85
2022-07-26T04:15:42.914Z,7.47
2022-07-26T04:18:31.652Z,7.28
2022-07-26T04:21:20.962Z,6.75
2022-07-26T04:24:10.652Z,6.72
2022-07-26T04:26:59.591Z,10.70
2022-07-26T04:29:49.752Z,7.35
2022-07-26T04:32:38.426Z,6.70
2022-07-26T04:35:27.600Z,6.53
2022-07-26T04:38:16.498Z,6.85
2022-07-26T04:41:05.053Z,6.75
2022-07-26T04:43:54.378Z,6.38
2022-07-26T04:46:44.915Z,6.43
2022-07-26T04:49:35.016Z,6.15
2022-07-26T04:52:24.152Z,6.95
2022-07-26T04:55:14.608Z,6.60
2022-07-26T04:58:03.795Z,6.55
2022-07-26T05:04:02.391Z,6.63
2022-07-26T05:06:51.224Z,6.15
2022-07-26T05:09:40.075Z,5.93
2022-07-26T05:12:28.831Z,5.75
2022-07-26T05:15:17.829Z,6.07
2022-07-26T05:18:10.680Z,6.60
2022-07-26T05:21:03.594Z,6.38
2022-07-26T05:23:52.212Z,6.25
2022-07-26T05:26:40.840Z,6.28
2022-07-26T05:29:29.466Z,6.20
2022-07-26T05:32:18.654Z,6.05
2022-07-26T05:35:08.488Z,6.10
2022-07-26T05:37:58.720Z,6.22
2022-07-26T05:40:50.706Z,6.25
2022-07-26T05:43:41.551Z,5.63
2022-07-26T05:46:30.815Z,5.75
2022-07-26T05:49:19.556Z,5.75
2022-07-26T05:52:08.744Z,6.00
2022-07-26T05:54:58.748Z,4.93
2022-07-26T05:57:49.536Z,5.72
2022-07-26T06:00:39.044Z,5.15
2022-07-26T06:03:27.653Z,5.63
2022-07-26T06:06:16.240Z,5.70
2022-07-26T06:09:05.094Z,5.47
2022-07-26T06:11:55.180Z,5.10
2022-07-26T06:14:43.929Z,5.85
2022-07-26T06:17:33.058Z,5.57
2022-07-26T06:20:21.746Z,5.40
2022-07-26T06:23:10.559Z,5.53
2022-07-26T06:25:59.411Z,5.45
2022-07-26T06:28:51.407Z,5.05
2022-07-26T06:31:40.023Z,4.93
2022-07-26T06:34:28.716Z,4.75
2022-07-26T06:37:18.010Z,4.50
2022-07-26T06:40:08.138Z,5.35
2022-07-26T06:43:01.268Z,4.90
2022-07-26T06:45:54.191Z,4.22
2022-07-26T06:48:47.170Z,4.45
2022-07-26T06:51:36.308Z,4.32
2022-07-26T06:54:25.027Z,4.80
2022-07-26T06:57:13.581Z,4.55
2022-07-26T07:00:02.253Z,4.28
2022-07-26T07:02:52.175Z,4.40
2022-07-26T07:05:40.724Z,4.35
2022-07-26T07:08:29.323Z,3.97
2022-07-26T07:11:18.136Z,4.57
2022-07-26T07:14:08.935Z,4.40
2022-07-26T07:16:58.563Z,4.38
2022-07-26T07:19:48.755Z,5.03
2022-07-26T07:22:37.497Z,4.28
2022-07-26T07:25:30.542Z,4.20
2022-07-26T07:28:19.667Z,4.13
2022-07-26T07:31:09.183Z,4.50
2022-07-26T07:33:57.942Z,4.40
2022-07-26T07:36:48.384Z,4.15
2022-07-26T07:39:38.479Z,4.25
2022-07-26T07:42:27.350Z,4.20
2022-07-26T07:45:15.908Z,4.30
2022-07-26T07:48:04.776Z,4.30
2022-07-26T07:50:53.403Z,4.13
2022-07-26T07:53:43.334Z,4.60
2022-07-26T07:56:45.432Z,4.20
2022-07-26T07:59:34.224Z,4.20
2022-07-26T08:02:27.943Z,4.55
2022-07-26T08:05:16.659Z,4.30
2022-07-26T08:08:08.663Z,4.57
2022-07-26T08:10:59.079Z,4.25
2022-07-26T08:13:48.259Z,4.18
2022-07-26T08:16:37.203Z,4.30
2022-07-26T08:19:26.121Z,4.10
2022-07-26T08:22:19.056Z,4.75
2022-07-26T08:25:10.748Z,4.18
2022-07-26T08:28:03.565Z,4.13
2022-07-26T08:30:52.558Z,4.13
2022-07-26T08:33:46.074Z,3.90
2022-07-26T08:36:35.534Z,4.40
2022-07-26T08:39:24.081Z,4.28
2022-07-26T08:42:15.977Z,4.32
2022-07-26T08:45:07.127Z,4.20
2022-07-26T08:48:16.605Z,4.55
2022-07-26T08:51:11.204Z,4.67
2022-07-26T08:54:05.709Z,4.40
2022-07-26T08:56:54.966Z,4.47
2022-07-26T08:59:44.051Z,4.45
2022-07-26T09:02:42.273Z,4.18
2022-07-26T09:05:33.718Z,5.20
2022-07-26T09:08:28.988Z,4.38
2022-07-26T09:11:29.287Z,4.40
2022-07-26T09:14:17.819Z,4.80
2022-07-26T09:17:07.307Z,4.50
2022-07-26T09:20:08.113Z,4.72
2022-07-26T09:23:05.267Z,4.43
2022-07-26T09:25:54.991Z,4.38
2022-07-26T09:28:45.010Z,4.50
2022-07-26T09:31:34.260Z,4.68
2022-07-26T09:34:26.539Z,5.05
2022-07-26T09:37:17.349Z,4.50
2022-07-26T09:40:09.774Z,4.88
2022-07-26T09:43:00.843Z,4.97
2022-07-26T09:46:05.072Z,5.72
2022-07-26T09:49:11.655Z,4.95
2022-07-26T09:52:01.086Z,5.20
2022-07-26T09:54:51.526Z,5.28
2022-07-26T09:57:40.236Z,5.60
2022-07-26T10:00:28.965Z,5.10
2022-07-26T10:03:17.664Z,4.95
2022-07-26T10:06:07.698Z,5.22
2022-07-26T10:08:57.921Z,4.75
2022-07-26T10:11:53.552Z,5.00
2022-07-26T10:14:45.947Z,5.05
2022-07-26T10:17:43.964Z,5.00
2022-07-26T10:20:53.026Z,5.32
2022-07-26T10:23:44.359Z,5.43
2022-07-26T10:26:43.075Z,4.57
2022-07-26T10:29:33.246Z,4.85
2022-07-26T10:32:22.001Z,4.75
2022-07-26T10:35:31.435Z,5.40
2022-07-26T10:38:27.063Z,5.15
2022-07-26T10:41:31.485Z,4.88
2022-07-26T10:44:26.636Z,5.60
2022-07-26T10:47:18.974Z,5.10
2022-07-26T10:50:08.285Z,5.13
2022-07-26T10:53:00.067Z,4.93
2022-07-26T10:55:50.617Z,5.68
2022-07-26T10:58:44.118Z,5.80
2022-07-26T11:01:36.437Z,5.60
2022-07-26T11:04:27.024Z,5.65
2022-07-26T11:07:15.614Z,6.38
2022-07-26T11:10:04.886Z,5.97
2022-07-26T11:13:08.463Z,5.50
2022-07-26T11:16:02.270Z,4.97
2022-07-26T11:18:52.505Z,5.25
2022-07-26T11:21:42.582Z,5.32
2022-07-26T11:24:31.448Z,5.40
2022-07-26T11:27:20.050Z,5.47
2022-07-26T11:30:09.726Z,5.60
2022-07-26T11:32:59.862Z,5.63
2022-07-26T11:35:52.274Z,6.00
2022-07-26T11:38:54.515Z,5.65
2022-07-26T11:41:44.347Z,6.13
2022-07-26T11:44:33.705Z,6.40
2022-07-26T11:47:26.378Z,6.18
2022-07-26T11:50:22.215Z,5.88
2022-07-26T11:53:22.276Z,5.85
2022-07-26T11:56:20.557Z,5.80
2022-07-26T11:59:14.463Z,5.70
2022-07-26T12:02:05.093Z,5.43
2022-07-26T12:05:14.751Z,5.93
2022-07-26T12:08:07.289Z,5.70
2022-07-26T12:10:56.156Z,5.68
2022-07-26T12:14:04.229Z,6.15
2022-07-26T12:16:52.796Z,5.93
2022-07-26T12:19:41.405Z,6.28
2022-07-26T12:22:30.384Z,6.60
2022-07-26T12:25:26.893Z,7.15
2022-07-26T12:28:15.535Z,7.93
2022-07-26T12:31:05.647Z,8.98
2022-07-26T12:33:55.122Z,8.93
2022-07-26T12:36:43.898Z,8.80
2022-07-26T12:39:32.938Z,8.65
2022-07-26T12:42:23.012Z,8.98
2022-07-26T12:45:23.501Z,8.65
2022-07-26T12:48:13.891Z,9.52
2022-07-26T12:51:02.508Z,8.27
2022-07-26T12:53:51.661Z,8.65
2022-07-26T12:56:44.180Z,8.20
2022-07-26T12:59:38.524Z,8.20
2022-07-26T13:02:31.439Z,9.95
2022-07-26T13:05:21.461Z,9.95
2022-07-26T13:08:10.131Z,10.07
2022-07-26T13:11:00.204Z,9.95
2022-07-26T13:13:49.479Z,9.57
2022-07-26T13:16:38.445Z,9.73
2022-07-26T13:19:27.054Z,10.27
2022-07-26T13:22:17.199Z,10.52
2022-07-26T13:25:08.459Z,11.23
2022-07-26T13:27:57.447Z,10.35
2022-07-26T13:30:46.267Z,11.48
2022-07-26T13:33:35.112Z,11.68
2022-07-26T13:36:23.693Z,11.77
2022-07-26T13:39:14.104Z,11.70
2022-07-26T13:42:02.803Z,11.30
2022-07-26T13:44:51.538Z,11.73
2022-07-26T13:47:40.020Z,12.88
2022-07-26T13:50:29.120Z,11.70
2022-07-26T13:53:17.924Z,13.27
2022-07-26T13:56:09.973Z,13.73
2022-07-26T13:58:58.561Z,12.85
2022-07-26T14:01:50.299Z,12.20
2022-07-26T14:04:38.925Z,11.70
2022-07-26T14:07:27.767Z,11.93
2022-07-26T14:10:16.427Z,10.98
2022-07-26T14:13:06.898Z,12.10
2022-07-26T14:15:55.408Z,10.77
2022-07-26T14:18:44.102Z,13.20
2022-07-26T14:21:43.539Z,11.35
2022-07-26T14:24:36.422Z,10.40
2022-07-26T14:27:25.203Z,10.23
2022-07-26T14:30:15.994Z,8.77
2022-07-26T14:33:05.235Z,9.55
2022-07-26T14:35:53.901Z,9.77
2022-07-26T14:38:44.196Z,9.60
2022-07-26T14:41:34.728Z,8.60
2022-07-26T14:44:26.051Z,8.90
2022-07-26T14:47:16.080Z,8.75
2022-07-26T14:50:07.260Z,9.65
2022-07-26T14:52:57.149Z,9.60
2022-07-26T14:55:46.338Z,9.32
2022-07-26T14:58:35.098Z,9.60
2022-07-26T15:01:24.149Z,9.35
2022-07-26T15:04:14.664Z,8.50
2022-07-26T15:07:03.494Z,13.95
2022-07-26T15:09:52.099Z,9.35
2022-07-26T15:12:41.487Z,10.32
2022-07-26T15:15:30.501Z,7.43
2022-07-26T15:18:19.175Z,7.85
2022-07-26T15:21:09.310Z,6.95
2022-07-26T15:23:58.165Z,5.95
2022-07-26T15:26:47.053Z,6.10
2022-07-26T15:29:38.237Z,5.38
2022-07-26T15:32:27.346Z,5.60
2022-07-26T15:35:16.191Z,5.22
2022-07-26T15:38:06.317Z,4.65
2022-07-26T15:40:55.181Z,4.25
2022-07-26T15:43:48.986Z,4.07
2022-07-26T15:46:38.183Z,3.85
2022-07-26T15:49:28.413Z,3.90
2022-07-26T15:52:17.330Z,3.50
2022-07-26T15:55:08.634Z,3.72
2022-07-26T15:57:57.341Z,3.50
2022-07-26T16:00:46.063Z,3.92
2022-07-26T16:03:35.033Z,3.45
2022-07-26T16:06:23.674Z,3.70
2022-07-26T16:09:24.090Z,4.00
2022-07-26T16:12:14.063Z,3.60
2022-07-26T16:15:02.815Z,3.40
2022-07-26T16:17:51.317Z,3.95
2022-07-26T16:20:39.881Z,3.78
2022-07-26T16:23:28.498Z,3.20
2022-07-26T16:26:17.125Z,4.05
2022-07-26T16:29:07.259Z,3.45
2022-07-26T16:31:56.292Z,3.40
2022-07-26T16:34:46.146Z,3.20
2022-07-26T16:37:34.950Z,3.53
2022-07-26T16:40:23.961Z,3.38
2022-07-26T16:43:12.523Z,3.90
2022-07-26T16:46:02.551Z,3.70
2022-07-26T16:48:51.262Z,3.95
2022-07-26T16:51:39.954Z,4.38
2022-07-26T16:54:28.657Z,3.72
2022-07-26T16:57:17.666Z,4.18
2022-07-26T17:00:09.364Z,4.47
2022-07-26T17:02:59.260Z,4.13
2022-07-26T17:05:47.978Z,3.90
2022-07-26T17:08:36.784Z,4.30
2022-07-26T17:11:25.383Z,4.03
2022-07-26T17:14:16.194Z,10.23
2022-07-26T17:17:05.005Z,4.95
2022-07-26T17:19:55.720Z,4.80
2022-07-26T17:22:44.415Z,4.55
2022-07-26T17:25:33.103Z,5.88
2022-07-26T17:28:21.789Z,5.93
2022-07-26T17:31:10.497Z,5.32
2022-07-26T17:33:59.092Z,6.13
2022-07-26T17:36:49.098Z,5.55
2022-07-26T17:39:52.664Z,6.65
2022-07-26T17:42:42.341Z,6.32
2022-07-26T17:45:30.976Z,7.03
2022-07-26T17:48:19.660Z,7.20
2022-07-26T17:51:08.224Z,6.60
2022-07-26T17:53:58.420Z,7.43
2022-07-26T17:56:47.034Z,6.88
2022-07-26T17:59:35.579Z,6.82
2022-07-26T18:02:24.513Z,7.65
2022-07-26T18:05:13.211Z,7.00
2022-07-26T18:08:02.043Z,6.82
2022-07-26T18:10:52.161Z,6.80
2022-07-26T18:13:40.686Z,6.88
2022-07-26T18:16:29.992Z,7.20
2022-07-26T18:19:18.982Z,6.88
2022-07-26T18:22:09.285Z,6.78
2022-07-26T18:24:57.791Z,6.07
2022-07-26T18:27:47.751Z,6.63
2022-07-26T18:30:36.531Z,6.32
2022-07-26T18:33:26.535Z,6.72
2022-07-26T18:36:15.998Z,7.28
2022-07-26T18:39:05.280Z,6.32
2022-07-26T18:41:54.919Z,6.55
2022-07-26T18:44:44.873Z,6.85
2022-07-26T18:47:33.827Z,7.22
2022-07-26T18:50:22.814Z,6.13
2022-07-26T18:53:11.469Z,6.28
2022-07-26T18:56:00.186Z,6.80
2022-07-26T18:58:50.112Z,9.73
2022-07-26T19:01:40.220Z,7.82
2022-07-26T19:04:29.326Z,6.65
2022-07-26T19:07:17.950Z,5.90
2022-07-26T19:10:07.738Z,5.50
2022-07-26T19:12:59.390Z,5.80
2022-07-26T19:15:48.142Z,5.78
2022-07-26T19:18:38.286Z,6.63
2022-07-26T19:21:26.964Z,5.65
2022-07-26T19:24:15.538Z,5.70
2022-07-26T19:27:04.075Z,6.05
2022-07-26T19:29:52.796Z,6.78
2022-07-26T19:32:41.683Z,6.15
2022-07-26T19:35:32.254Z,6.35
2022-07-26T19:38:20.916Z,6.75
2022-07-26T19:41:12.732Z,6.28
2022-07-26T19:44:04.337Z,6.22
2022-07-26T19:46:57.686Z,5.63
2022-07-26T19:49:46.783Z,6.50
2022-07-26T19:52:37.419Z,6.22
2022-07-26T19:55:25.974Z,7.07
2022-07-26T19:58:14.571Z,6.50
2022-07-26T20:01:05.014Z,6.50
2022-07-26T20:03:53.667Z,6.30
2022-07-26T20:06:42.424Z,7.07
2022-07-26T20:09:33.035Z,6.75
2022-07-26T20:12:22.435Z,6.75
2022-07-26T20:15:13.008Z,7.25
2022-07-26T20:18:02.275Z,6.60
2022-07-26T20:20:53.485Z,6.68
2022-07-26T20:23:42.018Z,7.85
2022-07-26T20:26:31.986Z,7.10
2022-07-26T20:29:20.923Z,7.38
2022-07-26T20:32:09.480Z,7.05
2022-07-26T20:34:58.028Z,8.25
2022-07-26T20:37:46.968Z,7.50
2022-07-26T20:40:35.597Z,7.80
2022-07-26T20:43:27.418Z,7.78
2022-07-26T20:46:17.947Z,8.25
2022-07-26T20:49:07.053Z,8.43
2022-07-26T20:51:55.644Z,8.18
2022-07-26T20:54:44.329Z,8.20
2022-07-26T20:57:33.042Z,8.18
2022-07-26T21:00:27.362Z,7.55
2022-07-26T21:03:16.977Z,7.32
2022-07-26T21:06:05.943Z,7.57
2022-07-26T21:08:54.585Z,8.27
2022-07-26T21:11:43.367Z,8.27
2022-07-26T21:14:32.178Z,8.57
2022-07-26T21:17:22.243Z,8.23
2022-07-26T21:20:23.365Z,8.48
2022-07-26T21:23:17.243Z,8.32
2022-07-26T21:26:06.854Z,8.18
2022-07-26T21:28:55.448Z,8.38
2022-07-26T21:31:44.149Z,8.88
2022-07-26T21:34:34.979Z,8.90
2022-07-26T21:37:23.818Z,9.15
2022-07-26T21:40:13.276Z,8.40
2022-07-26T21:43:02.382Z,8.77
2022-07-26T21:45:51.037Z,9.65
2022-07-26T21:48:39.729Z,9.32
2022-07-26T21:51:29.755Z,9.60
2022-07-26T21:54:18.478Z,8.75
2022-07-26T21:57:07.558Z,9.02
2022-07-26T21:59:56.159Z,9.40
2022-07-26T22:02:45.138Z,9.05
2022-07-26T22:05:38.192Z,8.90
2022-07-26T22:08:28.509Z,9.38
2022-07-26T22:11:17.206Z,9.20
2022-07-26T22:14:08.437Z,9.68
2022-07-26T22:16:57.270Z,8.85
2022-07-26T22:19:46.149Z,9.75
2022-07-26T22:22:34.967Z,9.63
2022-07-26T22:25:25.015Z,9.38
2022-07-26T22:28:18.111Z,10.20
2022-07-26T22:31:07.364Z,9.70
2022-07-26T22:33:56.089Z,10.00
2022-07-26T22:36:46.675Z,9.57
2022-07-26T22:39:35.432Z,10.50
2022-07-26T22:42:25.332Z,9.25
2022-07-26T22:45:14.210Z,10.20
2022-07-26T22:48:03.759Z,10.35
2022-07-26T22:50:52.534Z,10.32
2022-07-26T22:53:41.078Z,10.15
2022-07-26T22:56:29.740Z,10.32
2022-07-26T22:59:19.923Z,10.30
2022-07-26T23:02:09.293Z,10.75
2022-07-26T23:04:57.728Z,10.57
2022-07-26T23:07:48.199Z,10.52
2022-07-26T23:10:37.034Z,10.88
2022-07-26T23:13:25.618Z,10.27
2022-07-26T23:16:15.576Z,10.45
2022-07-26T23:19:07.390Z,10.63
2022-07-26T23:21:56.006Z,9.98
2022-07-26T23:24:45.623Z,10.70
2022-07-26T23:27:34.276Z,11.27
2022-07-26T23:30:22.951Z,9.80
2022-07-26T23:33:12.838Z,10.93
2022-07-26T23:36:01.388Z,11.98
2022-07-26T23:38:49.947Z,11.90
2022-07-26T23:41:38.629Z,11.35
2022-07-26T23:44:27.160Z,10.93
2022-07-26T23:47:15.725Z,11.02
2022-07-26T23:50:06.184Z,11.57
2022-07-26T23:52:54.767Z,10.88
2022-07-26T23:55:43.251Z,11.00
2022-07-26T23:58:37.925Z,10.00
